Terminal Aerodrome Forecast
Issued by NWS Sioux Falls, SD

Home | Current Version | Previous Version | Graphics & Text | Print | Product List | Glossary Off
Versions: 1 2 3 4 5 6 7 8 9 10 11 12 13 14 15 16

000
FTUS43 KFSD 092300
TAFHON
TAF
KHON 092320Z 1000/1024 09005KT 6SM FU SCT070
     FM101000 14009KT P6SM BKN070
     FM101400 16015G23KT P6SM BKN150=

USA.gov is the U.S. government's official web portal to all federal, state and local government web resources and services.